createdAt,value
2018-11-02T00:00:59.898Z,0.00
2018-11-02T00:01:59.876Z,0.00
2018-11-02T00:02:59.855Z,0.00
2018-11-02T00:03:59.838Z,0.00
2018-11-02T00:04:59.818Z,0.00
2018-11-02T00:05:59.822Z,0.00
2018-11-02T00:06:59.782Z,0.00
2018-11-02T00:07:59.756Z,0.00
2018-11-02T00:08:59.746Z,0.00
2018-11-02T00:09:59.720Z,0.00
2018-11-02T00:10:59.697Z,0.00
2018-11-02T00:11:59.681Z,0.00
2018-11-02T00:12:59.660Z,0.00
2018-11-02T00:13:59.640Z,0.00
2018-11-02T00:14:59.616Z,0.00
2018-11-02T00:15:59.601Z,0.00
2018-11-02T00:16:59.576Z,0.00
2018-11-02T00:17:59.561Z,0.00
2018-11-02T00:18:59.543Z,0.00
2018-11-02T00:19:59.518Z,0.00
2018-11-02T00:20:59.498Z,0.00
2018-11-02T00:21:59.482Z,0.00
2018-11-02T00:22:59.458Z,0.00
2018-11-02T00:23:59.438Z,0.00
2018-11-02T00:24:59.418Z,0.00
2018-11-02T00:25:59.405Z,0.00
2018-11-02T00:26:59.378Z,0.00
2018-11-02T00:27:59.360Z,0.00
2018-11-02T00:28:59.340Z,0.00
2018-11-02T00:29:59.323Z,0.00
2018-11-02T00:30:59.300Z,0.00
2018-11-02T00:31:59.418Z,0.00
2018-11-02T00:32:59.259Z,0.00
2018-11-02T00:33:59.242Z,0.00
2018-11-02T00:34:59.239Z,0.00
2018-11-02T00:35:59.206Z,0.00
2018-11-02T00:36:59.191Z,0.00
2018-11-02T00:37:59.164Z,0.00
2018-11-02T00:38:59.150Z,0.00
2018-11-02T00:39:59.123Z,0.00
2018-11-02T00:40:59.105Z,0.00
2018-11-02T00:41:59.080Z,0.00
2018-11-02T00:42:59.063Z,0.00
2018-11-02T00:43:59.100Z,0.00
2018-11-02T00:44:59.029Z,0.00
2018-11-02T00:45:59.004Z,0.00
2018-11-02T00:46:58.980Z,0.00
2018-11-02T00:47:58.965Z,0.00
2018-11-02T00:48:58.944Z,0.00
2018-11-02T00:49:58.924Z,0.00
2018-11-02T00:50:58.964Z,0.00
2018-11-02T00:51:58.882Z,0.00
2018-11-02T00:52:58.863Z,0.00
2018-11-02T00:53:58.846Z,0.00
2018-11-02T00:54:58.832Z,0.00
2018-11-02T00:55:58.802Z,0.00
2018-11-02T00:56:58.779Z,0.00
2018-11-02T00:57:58.762Z,0.00
2018-11-02T00:58:58.743Z,0.00
2018-11-02T00:59:58.720Z,0.00
2018-11-02T01:00:58.708Z,0.00
2018-11-02T01:01:58.684Z,0.00
2018-11-02T01:02:58.659Z,0.00
2018-11-02T01:03:58.644Z,0.00
2018-11-02T01:04:58.628Z,0.00
2018-11-02T01:05:58.602Z,0.00
2018-11-02T01:06:58.583Z,0.00
2018-11-02T01:07:58.562Z,0.00
2018-11-02T01:08:58.545Z,0.00
2018-11-02T01:09:58.524Z,0.00
2018-11-02T01:10:58.500Z,0.00
2018-11-02T01:11:58.481Z,0.00
2018-11-02T01:12:58.461Z,0.00
2018-11-02T01:13:58.450Z,0.00
2018-11-02T01:14:58.423Z,0.00
2018-11-02T01:15:58.399Z,0.00
2018-11-02T01:16:58.380Z,0.00
2018-11-02T01:17:58.364Z,0.00
2018-11-02T01:18:58.340Z,0.00
2018-11-02T01:19:58.324Z,0.00
2018-11-02T01:20:58.301Z,0.00
2018-11-02T01:21:58.281Z,0.00
2018-11-02T01:22:58.262Z,0.00
2018-11-02T01:23:58.245Z,0.00
2018-11-02T01:24:58.227Z,0.00
2018-11-02T01:25:58.228Z,0.00
2018-11-02T01:26:58.182Z,0.00
2018-11-02T01:27:58.158Z,0.00
2018-11-02T01:28:58.146Z,0.00
2018-11-02T01:29:58.123Z,0.00
2018-11-02T01:30:58.102Z,0.00
2018-11-02T01:31:58.082Z,0.00
2018-11-02T01:32:58.063Z,0.00
2018-11-02T01:33:58.041Z,0.00
2018-11-02T01:34:58.021Z,0.00
2018-11-02T01:35:58.000Z,0.00
2018-11-02T01:36:57.981Z,0.00
2018-11-02T01:37:57.959Z,0.00
2018-11-02T01:38:57.937Z,0.00
2018-11-02T01:39:57.919Z,0.00
2018-11-02T01:40:57.901Z,0.00
2018-11-02T01:41:57.881Z,0.00
2018-11-02T01:42:57.863Z,0.00
2018-11-02T01:43:57.839Z,0.00
2018-11-02T01:44:57.817Z,0.00
2018-11-02T01:45:57.800Z,0.00
2018-11-02T01:46:57.779Z,0.00
2018-11-02T01:47:57.766Z,0.00
2018-11-02T01:48:57.745Z,0.00
2018-11-02T01:49:57.723Z,0.00
2018-11-02T01:50:57.700Z,0.00
2018-11-02T01:51:57.681Z,0.00
2018-11-02T01:52:57.660Z,0.00
2018-11-02T01:53:57.641Z,0.00
2018-11-02T01:54:57.624Z,0.00
2018-11-02T01:55:57.598Z,0.00
2018-11-02T01:56:57.577Z,0.00
2018-11-02T01:57:57.561Z,0.00
2018-11-02T01:58:57.535Z,0.00
2018-11-02T01:59:57.517Z,0.00
2018-11-02T02:00:57.496Z,0.00
2018-11-02T02:01:57.506Z,0.00
2018-11-02T02:02:57.457Z,0.00
2018-11-02T02:03:57.439Z,0.00
2018-11-02T02:04:57.420Z,0.00
2018-11-02T02:05:57.396Z,0.00
2018-11-02T02:06:57.378Z,0.00
2018-11-02T02:07:57.362Z,0.00
2018-11-02T02:08:57.343Z,0.00
2018-11-02T02:09:57.317Z,0.00
2018-11-02T02:10:57.291Z,0.00
2018-11-02T02:11:57.275Z,0.00
2018-11-02T02:12:57.305Z,0.00
2018-11-02T02:13:57.235Z,0.00
2018-11-02T02:14:57.214Z,0.00
2018-11-02T02:15:57.189Z,0.00
2018-11-02T02:16:57.173Z,0.00
2018-11-02T02:17:57.153Z,0.00
2018-11-02T02:18:57.135Z,0.00
2018-11-02T02:19:57.113Z,0.00
2018-11-02T02:20:57.090Z,0.00
2018-11-02T02:21:57.086Z,0.00
2018-11-02T02:22:57.053Z,0.00
2018-11-02T02:23:57.037Z,0.00
2018-11-02T02:24:57.013Z,0.00
2018-11-02T02:25:56.997Z,0.00
2018-11-02T02:26:56.973Z,0.00
2018-11-02T02:27:56.949Z,0.00
2018-11-02T02:28:56.970Z,0.00
2018-11-02T02:29:56.917Z,0.00
2018-11-02T02:30:56.889Z,0.00
2018-11-02T02:31:56.867Z,0.00
2018-11-02T02:32:56.851Z,0.00
2018-11-02T02:33:56.827Z,0.00
2018-11-02T02:34:56.811Z,0.00
2018-11-02T02:35:56.792Z,0.00
2018-11-02T02:36:56.768Z,0.00
2018-11-02T02:37:56.747Z,0.00
2018-11-02T02:38:56.725Z,0.00
2018-11-02T02:39:56.707Z,0.00
2018-11-02T02:40:56.687Z,0.00
2018-11-02T02:41:56.665Z,0.00
2018-11-02T02:42:56.645Z,0.00
2018-11-02T02:43:56.625Z,0.00
2018-11-02T02:44:56.604Z,0.00
2018-11-02T02:45:56.585Z,0.00
2018-11-02T02:46:56.590Z,0.00
2018-11-02T02:47:56.547Z,0.00
2018-11-02T02:48:56.523Z,0.00
2018-11-02T02:49:56.504Z,0.00
2018-11-02T02:50:56.476Z,0.00
2018-11-02T02:51:56.462Z,0.00
2018-11-02T02:52:56.446Z,0.00
2018-11-02T02:53:56.417Z,0.00
2018-11-02T02:54:56.400Z,0.00
2018-11-02T02:55:56.382Z,0.00
2018-11-02T02:56:56.360Z,0.00
2018-11-02T02:57:56.338Z,0.00
2018-11-02T02:58:56.321Z,0.00
2018-11-02T02:59:56.297Z,0.00
2018-11-02T03:00:56.278Z,0.00
2018-11-02T03:01:56.268Z,0.00
2018-11-02T03:02:56.240Z,0.00
2018-11-02T03:03:56.225Z,0.00
2018-11-02T03:04:56.196Z,0.00
2018-11-02T03:05:56.177Z,0.00
2018-11-02T03:06:56.154Z,0.00
2018-11-02T03:07:56.134Z,0.00
2018-11-02T03:08:56.114Z,0.00
2018-11-02T03:09:56.092Z,0.00
2018-11-02T03:10:56.257Z,0.00
2018-11-02T03:11:56.055Z,0.00
2018-11-02T03:12:56.033Z,0.00
2018-11-02T03:13:56.016Z,0.00
2018-11-02T03:14:56.041Z,0.00
2018-11-02T03:15:55.971Z,0.00
2018-11-02T03:16:55.951Z,0.00
2018-11-02T03:17:55.934Z,0.00
2018-11-02T03:18:55.908Z,0.00
2018-11-02T03:19:55.890Z,0.00
2018-11-02T03:20:55.872Z,0.00
2018-11-02T03:21:55.850Z,0.00
2018-11-02T03:22:55.828Z,0.00
2018-11-02T03:23:55.810Z,0.00
2018-11-02T03:24:55.784Z,0.00
2018-11-02T03:25:55.774Z,0.00
2018-11-02T03:26:55.743Z,0.00
2018-11-02T03:27:55.728Z,0.00
2018-11-02T03:28:55.710Z,0.00
2018-11-02T03:29:55.717Z,0.00
2018-11-02T03:30:55.663Z,0.00
2018-11-02T03:31:55.646Z,0.00
2018-11-02T03:32:55.628Z,0.00
2018-11-02T03:33:55.604Z,0.00
2018-11-02T03:34:55.584Z,0.00
2018-11-02T03:35:55.564Z,0.00
2018-11-02T03:36:55.540Z,0.00
2018-11-02T03:37:55.520Z,0.00
2018-11-02T03:38:55.505Z,0.00
2018-11-02T03:39:55.482Z,0.00
2018-11-02T03:40:55.480Z,0.00
2018-11-02T03:41:55.441Z,0.00
2018-11-02T03:42:55.424Z,0.00
2018-11-02T03:43:55.400Z,0.00
2018-11-02T03:44:55.376Z,0.00
2018-11-02T03:45:55.363Z,0.00
2018-11-02T03:46:55.336Z,0.00
2018-11-02T03:47:55.321Z,0.00
2018-11-02T03:48:55.296Z,0.00
2018-11-02T03:49:55.288Z,0.00
2018-11-02T03:50:55.286Z,0.00
2018-11-02T03:51:55.236Z,0.00
2018-11-02T03:52:55.215Z,0.00
2018-11-02T03:53:55.195Z,0.00
2018-11-02T03:54:55.177Z,0.00
2018-11-02T03:55:55.154Z,0.00
2018-11-02T03:56:55.237Z,0.00
2018-11-02T03:57:55.115Z,0.00
2018-11-02T03:58:55.097Z,0.00
2018-11-02T03:59:55.069Z,0.00
2018-11-02T04:00:55.293Z,0.00
2018-11-02T04:01:55.037Z,0.00
2018-11-02T04:02:55.010Z,0.00
2018-11-02T04:03:54.989Z,0.00
2018-11-02T04:04:54.969Z,0.00
2018-11-02T04:05:54.949Z,0.00
2018-11-02T04:06:54.931Z,0.00
2018-11-02T04:07:54.907Z,0.00
2018-11-02T04:08:54.886Z,0.00
2018-11-02T04:09:54.870Z,0.00
2018-11-02T04:10:54.845Z,0.00
2018-11-02T04:11:54.831Z,0.00
2018-11-02T04:12:54.829Z,0.00
2018-11-02T04:13:54.787Z,0.00
2018-11-02T04:14:54.767Z,0.00
2018-11-02T04:15:54.749Z,0.00
2018-11-02T04:16:54.731Z,0.00
2018-11-02T04:17:54.708Z,0.00
2018-11-02T04:18:54.692Z,0.00
2018-11-02T04:19:54.663Z,0.00
2018-11-02T04:20:54.643Z,0.00
2018-11-02T04:21:54.622Z,0.00
2018-11-02T04:22:54.600Z,0.00
2018-11-02T04:23:54.579Z,0.00
2018-11-02T04:24:54.564Z,0.00
2018-11-02T04:25:54.539Z,0.00
2018-11-02T04:26:54.521Z,0.00
2018-11-02T04:27:54.497Z,0.00
2018-11-02T04:28:54.475Z,0.00
2018-11-02T04:29:54.457Z,0.00
2018-11-02T04:30:54.537Z,0.00
2018-11-02T04:31:54.409Z,0.00
2018-11-02T04:32:54.395Z,0.00
2018-11-02T04:33:54.373Z,0.00
2018-11-02T04:34:54.354Z,0.00
2018-11-02T04:35:54.333Z,0.00
2018-11-02T04:36:54.307Z,0.00
2018-11-02T04:37:54.294Z,0.00
2018-11-02T04:38:54.269Z,0.00
2018-11-02T04:39:54.250Z,0.00
2018-11-02T04:40:54.228Z,0.00
2018-11-02T04:41:54.204Z,0.00
2018-11-02T04:42:54.185Z,0.00
2018-11-02T04:43:54.211Z,0.00
2018-11-02T04:44:54.148Z,0.00
2018-11-02T04:45:54.125Z,0.00
2018-11-02T04:46:54.108Z,0.00
2018-11-02T04:47:54.083Z,0.00
2018-11-02T04:48:54.069Z,0.00
2018-11-02T04:49:54.040Z,0.00
2018-11-02T04:50:54.147Z,0.00
2018-11-02T04:51:53.999Z,0.00
2018-11-02T04:52:53.976Z,0.00
2018-11-02T04:53:53.958Z,0.00
2018-11-02T04:54:53.938Z,0.00
2018-11-02T04:55:53.919Z,0.00
2018-11-02T04:56:53.897Z,0.00
2018-11-02T04:57:53.875Z,0.00
2018-11-02T04:58:53.854Z,0.00
2018-11-02T04:59:53.843Z,0.00
2018-11-02T05:00:53.815Z,0.00
2018-11-02T05:01:53.800Z,0.00
2018-11-02T05:02:53.769Z,0.00
2018-11-02T05:03:53.755Z,0.00
2018-11-02T05:04:53.737Z,0.00
2018-11-02T05:05:53.724Z,0.00
2018-11-02T05:06:53.685Z,0.00
2018-11-02T05:07:53.669Z,0.00
2018-11-02T05:08:53.655Z,0.00
2018-11-02T05:09:53.707Z,0.00
2018-11-02T05:10:53.612Z,0.00
2018-11-02T05:11:53.581Z,0.00
2018-11-02T05:12:53.566Z,0.00
2018-11-02T05:13:53.543Z,0.00
2018-11-02T05:14:53.519Z,0.00
2018-11-02T05:15:53.497Z,0.00
2018-11-02T05:16:53.479Z,0.00
2018-11-02T05:17:53.464Z,0.00
2018-11-02T05:18:53.441Z,0.00
2018-11-02T05:19:53.420Z,0.00
2018-11-02T05:20:53.393Z,0.00
2018-11-02T05:21:53.377Z,0.00
2018-11-02T05:22:53.356Z,0.00
2018-11-02T05:23:53.338Z,0.00
2018-11-02T05:24:53.312Z,0.00
2018-11-02T05:25:53.293Z,0.00
2018-11-02T05:26:53.273Z,0.00
2018-11-02T05:27:53.253Z,0.00
2018-11-02T05:28:53.232Z,0.00
2018-11-02T05:29:53.211Z,0.00
2018-11-02T05:30:53.189Z,0.00
2018-11-02T05:31:53.167Z,0.00
2018-11-02T05:32:53.149Z,0.00
2018-11-02T05:33:53.129Z,0.00
2018-11-02T05:34:53.102Z,4.00
2018-11-02T05:35:53.083Z,4.00
2018-11-02T05:36:53.063Z,0.00
2018-11-02T05:37:53.046Z,4.00
2018-11-02T05:38:53.022Z,4.00
2018-11-02T05:39:52.999Z,4.00
2018-11-02T05:40:52.983Z,8.00
2018-11-02T05:41:52.957Z,8.00
2018-11-02T05:42:52.946Z,8.00
2018-11-02T05:43:52.917Z,12.00
2018-11-02T05:44:52.931Z,12.00
2018-11-02T05:45:52.878Z,16.00
2018-11-02T05:46:52.855Z,16.00
2018-11-02T05:47:52.847Z,20.00
2018-11-02T05:48:52.820Z,24.00
2018-11-02T05:49:52.791Z,24.00
2018-11-02T05:50:52.769Z,32.00
2018-11-02T05:51:52.753Z,36.00
2018-11-02T05:52:52.740Z,40.00
2018-11-02T05:53:52.709Z,44.00
2018-11-02T05:54:52.716Z,52.00
2018-11-02T05:55:52.667Z,60.00
2018-11-02T05:57:52.627Z,72.00
2018-11-02T05:58:52.640Z,80.00
2018-11-02T05:59:52.583Z,88.00
2018-11-02T06:00:52.561Z,100.00
2018-11-02T06:01:52.543Z,104.00
2018-11-02T06:02:52.521Z,112.00
2018-11-02T06:03:52.503Z,124.00
2018-11-02T06:04:52.484Z,128.00
2018-11-02T06:05:52.508Z,136.00
2018-11-02T06:06:52.432Z,148.00
2018-11-02T06:07:52.451Z,156.00
2018-11-02T06:08:52.423Z,168.00
2018-11-02T06:09:52.371Z,180.00
2018-11-02T06:10:52.351Z,192.00
2018-11-02T06:11:52.332Z,200.00
2018-11-02T06:12:52.307Z,212.00
2018-11-02T06:13:52.290Z,224.00
2018-11-02T06:14:52.270Z,240.00
2018-11-02T06:15:52.248Z,252.00
2018-11-02T06:16:52.301Z,260.00
2018-11-02T06:17:52.204Z,264.00
2018-11-02T06:18:52.186Z,268.00
2018-11-02T06:19:52.164Z,272.00
2018-11-02T06:20:52.138Z,276.00
2018-11-02T06:21:52.118Z,288.00
2018-11-02T06:22:52.098Z,304.00
2018-11-02T06:23:52.087Z,320.00
2018-11-02T06:24:52.066Z,328.00
2018-11-02T06:25:52.040Z,344.00
2018-11-02T06:26:52.014Z,360.00
2018-11-02T06:27:51.998Z,368.00
2018-11-02T06:28:51.971Z,372.00
2018-11-02T06:29:51.980Z,376.00
2018-11-02T06:30:51.930Z,388.00
2018-11-02T06:31:51.914Z,412.00
2018-11-02T06:32:52.006Z,432.00
2018-11-02T06:33:51.866Z,464.00
2018-11-02T06:34:51.848Z,476.00
2018-11-02T06:35:51.824Z,484.00
2018-11-02T06:36:51.803Z,500.00
2018-11-02T06:37:51.785Z,504.00
2018-11-02T06:38:51.828Z,512.00
2018-11-02T06:39:51.740Z,520.00
2018-11-02T06:40:51.717Z,536.00
2018-11-02T06:41:51.700Z,568.00
2018-11-02T06:42:51.678Z,584.00
2018-11-02T06:43:51.657Z,596.00
2018-11-02T06:44:51.658Z,616.00
2018-11-02T06:45:51.616Z,636.00
2018-11-02T06:46:51.591Z,656.00
2018-11-02T06:47:51.569Z,696.00
2018-11-02T06:48:51.557Z,728.00
2018-11-02T06:49:51.528Z,736.00
2018-11-02T06:50:51.521Z,752.00
2018-11-02T06:51:51.489Z,816.00
2018-11-02T06:52:51.476Z,852.00
2018-11-02T06:53:51.447Z,912.00
2018-11-02T06:54:51.424Z,1016.00
2018-11-02T06:55:51.404Z,1132.00
2018-11-02T06:56:51.387Z,1048.00
2018-11-02T06:57:51.358Z,1168.00
2018-11-02T06:58:51.342Z,1260.00
2018-11-02T06:59:51.503Z,1280.00
2018-11-02T07:00:51.301Z,1308.00
2018-11-02T07:01:51.271Z,1332.00
2018-11-02T07:02:51.277Z,1340.00
2018-11-02T07:03:51.230Z,1372.00
2018-11-02T07:04:51.209Z,1404.00
2018-11-02T07:05:51.188Z,1400.00
2018-11-02T07:06:51.168Z,1412.00
2018-11-02T07:07:51.273Z,1420.00
2018-11-02T07:08:51.133Z,1432.00
2018-11-02T07:09:51.134Z,1456.00
2018-11-02T07:10:51.093Z,1472.00
2018-11-02T07:11:51.059Z,1480.00
2018-11-02T07:12:51.045Z,1476.00
2018-11-02T07:13:51.026Z,1532.00
2018-11-02T07:14:50.997Z,1572.00
2018-11-02T07:15:50.985Z,1608.00
2018-11-02T07:16:50.962Z,1600.00
2018-11-02T07:17:50.939Z,1668.00
2018-11-02T07:18:50.912Z,1740.00
2018-11-02T07:19:50.891Z,1820.00
2018-11-02T07:20:51.197Z,1844.00
2018-11-02T07:21:50.854Z,1900.00
2018-11-02T07:22:50.839Z,1940.00
2018-11-02T07:23:50.954Z,1968.00
2018-11-02T07:24:50.834Z,2040.00
2018-11-02T07:25:50.771Z,2044.00
2018-11-02T07:26:50.750Z,1476.00
2018-11-02T07:27:50.763Z,1584.00
2018-11-02T07:28:50.705Z,1712.00
2018-11-02T07:29:50.688Z,1840.00
2018-11-02T07:30:50.662Z,1876.00
2018-11-02T07:31:50.648Z,1904.00
2018-11-02T07:32:50.624Z,1852.00
2018-11-02T07:33:50.606Z,1784.00
2018-11-02T07:34:50.580Z,1792.00
2018-11-02T07:35:50.557Z,1760.00
2018-11-02T07:36:50.544Z,1684.00
2018-11-02T07:37:50.520Z,1716.00
2018-11-02T07:38:50.507Z,1592.00
2018-11-02T07:39:50.480Z,1712.00
2018-11-02T07:40:50.460Z,1612.00
2018-11-02T07:41:50.438Z,1496.00
2018-11-02T07:42:50.413Z,1756.00
2018-11-02T07:43:50.393Z,1760.00
2018-11-02T07:44:50.378Z,1876.00
2018-11-02T07:45:50.360Z,2060.00
2018-11-02T07:46:50.331Z,2092.00
2018-11-02T07:47:50.598Z,2156.00
2018-11-02T07:48:50.293Z,2144.00
2018-11-02T07:49:50.270Z,2180.00
2018-11-02T07:50:50.251Z,2300.00
2018-11-02T07:51:50.229Z,2376.00
2018-11-02T07:52:50.212Z,2184.00
2018-11-02T07:53:50.192Z,2492.00
2018-11-02T07:54:50.169Z,2588.00
2018-11-02T07:55:50.153Z,2684.00
2018-11-02T07:56:50.129Z,2704.00
2018-11-02T07:57:50.112Z,2460.00
2018-11-02T07:58:50.087Z,2832.00
2018-11-02T07:59:50.070Z,2860.00
2018-11-02T08:00:50.056Z,2840.00
2018-11-02T08:01:50.057Z,2644.00
2018-11-02T08:02:50.008Z,2544.00
2018-11-02T08:03:50.123Z,2716.00
2018-11-02T08:04:49.969Z,2652.00
2018-11-02T08:05:49.945Z,2904.00
2018-11-02T08:06:49.928Z,2720.00
2018-11-02T08:07:49.913Z,2892.00
2018-11-02T08:08:49.890Z,2708.00
2018-11-02T08:09:49.867Z,3092.00
2018-11-02T08:10:49.845Z,3060.00
2018-11-02T08:11:49.827Z,2868.00
2018-11-02T08:12:49.803Z,2932.00
2018-11-02T08:13:49.787Z,3144.00
2018-11-02T08:14:49.764Z,3120.00
2018-11-02T08:15:49.743Z,3572.00
2018-11-02T08:16:49.728Z,3552.00
2018-11-02T08:17:49.771Z,3428.00
2018-11-02T08:18:49.728Z,3388.00
2018-11-02T08:19:49.669Z,3440.00
2018-11-02T08:20:49.651Z,3612.00
2018-11-02T08:21:49.627Z,3720.00
2018-11-02T08:22:49.617Z,3812.00
2018-11-02T08:23:49.589Z,3408.00
2018-11-02T08:24:49.565Z,3400.00
2018-11-02T08:25:49.545Z,3400.00
2018-11-02T08:26:49.531Z,3452.00
2018-11-02T08:27:49.511Z,3472.00
2018-11-02T08:28:49.485Z,3472.00
2018-11-02T08:29:49.467Z,3480.00
2018-11-02T08:30:49.448Z,3476.00
2018-11-02T08:31:49.469Z,3424.00
2018-11-02T08:32:49.415Z,3328.00
2018-11-02T08:33:49.385Z,3372.00
2018-11-02T08:34:49.367Z,3348.00
2018-11-02T08:35:49.349Z,3360.00
2018-11-02T08:36:49.332Z,3440.00
2018-11-02T08:37:49.319Z,3524.00
2018-11-02T08:38:49.294Z,3508.00
2018-11-02T08:39:49.282Z,3188.00
2018-11-02T08:40:49.250Z,3032.00
2018-11-02T08:41:49.237Z,3024.00
2018-11-02T08:42:49.213Z,3128.00
2018-11-02T08:43:49.195Z,3104.00
2018-11-02T08:44:49.171Z,3100.00
2018-11-02T08:45:49.158Z,3264.00
2018-11-02T08:46:49.137Z,3700.00
2018-11-02T08:47:49.121Z,4008.00
2018-11-02T08:48:49.102Z,4336.00
2018-11-02T08:49:49.079Z,4932.00
2018-11-02T08:50:49.061Z,5260.00
2018-11-02T08:51:49.047Z,6088.00
2018-11-02T08:52:49.024Z,6484.00
2018-11-02T08:53:49.007Z,7032.00
2018-11-02T08:54:48.983Z,6936.00
2018-11-02T08:55:48.965Z,7636.00
2018-11-02T08:56:48.947Z,8740.00
2018-11-02T08:57:49.083Z,8772.00
2018-11-02T08:58:49.224Z,9336.00
2018-11-02T08:59:48.969Z,10468.00
2018-11-02T09:00:48.876Z,11772.00
2018-11-02T09:01:48.861Z,13252.00
2018-11-02T09:02:48.835Z,14128.00
2018-11-02T09:03:48.820Z,14400.00
2018-11-02T09:04:48.858Z,16448.00
2018-11-02T09:05:48.786Z,15360.00
2018-11-02T09:06:48.765Z,13024.00
2018-11-02T09:07:48.753Z,13420.00
2018-11-02T09:08:48.729Z,13416.00
2018-11-02T09:09:48.718Z,13916.00
2018-11-02T09:10:48.693Z,14396.00
2018-11-02T09:11:48.679Z,14848.00
2018-11-02T09:12:48.659Z,14816.00
2018-11-02T09:13:48.645Z,14236.00
2018-11-02T09:14:48.627Z,13668.00
2018-11-02T09:15:48.607Z,13008.00
2018-11-02T09:16:48.591Z,14424.00
2018-11-02T09:17:48.581Z,15936.00
2018-11-02T09:18:48.741Z,15488.00
2018-11-02T09:19:48.542Z,15584.00
2018-11-02T09:20:48.526Z,15296.00
2018-11-02T09:21:48.511Z,15168.00
2018-11-02T09:22:48.499Z,16352.00
2018-11-02T09:23:48.480Z,12840.00
2018-11-02T09:24:48.533Z,14052.00
2018-11-02T09:25:48.455Z,13452.00
2018-11-02T09:26:48.443Z,14148.00
2018-11-02T09:27:48.626Z,10960.00
2018-11-02T09:28:48.409Z,8560.00
2018-11-02T09:29:48.401Z,8444.00
2018-11-02T09:30:48.383Z,6632.00
2018-11-02T09:31:48.399Z,7024.00
2018-11-02T09:32:48.350Z,6896.00
2018-11-02T09:33:48.337Z,6976.00
2018-11-02T09:34:48.317Z,6784.00
2018-11-02T09:35:48.307Z,7308.00
2018-11-02T09:36:48.293Z,6664.00
2018-11-02T09:37:48.281Z,7744.00
2018-11-02T09:38:48.265Z,8656.00
2018-11-02T09:39:48.250Z,8672.00
2018-11-02T09:40:48.235Z,7924.00
2018-11-02T09:41:48.217Z,6820.00
2018-11-02T09:42:48.347Z,6240.00
2018-11-02T09:43:48.189Z,6140.00
2018-11-02T09:44:48.176Z,7156.00
2018-11-02T09:45:48.166Z,7192.00
2018-11-02T09:46:48.149Z,7528.00
2018-11-02T09:47:48.136Z,7172.00
2018-11-02T09:48:48.119Z,8100.00
2018-11-02T09:49:48.111Z,11280.00
2018-11-02T09:50:48.090Z,12952.00
2018-11-02T09:51:48.203Z,11852.00
2018-11-02T09:52:48.062Z,10852.00
2018-11-02T09:53:48.047Z,11024.00
2018-11-02T09:54:48.033Z,10708.00
2018-11-02T09:55:48.015Z,8724.00
2018-11-02T09:56:48.007Z,8012.00
2018-11-02T09:57:48.086Z,7888.00
2018-11-02T09:58:47.975Z,9604.00
2018-11-02T09:59:47.960Z,10684.00
2018-11-02T10:00:48.093Z,10268.00
2018-11-02T10:01:47.934Z,11656.00
2018-11-02T10:02:47.916Z,9324.00
2018-11-02T10:03:47.913Z,13688.00
2018-11-02T10:04:47.889Z,11128.00
2018-11-02T10:05:47.873Z,11468.00
2018-11-02T10:06:47.859Z,13420.00
2018-11-02T10:07:47.843Z,8524.00
2018-11-02T10:08:47.826Z,8920.00
2018-11-02T10:09:47.822Z,9436.00
2018-11-02T10:10:47.802Z,11952.00
2018-11-02T10:11:47.784Z,8404.00
2018-11-02T10:12:47.770Z,9108.00
2018-11-02T10:13:47.758Z,9264.00
2018-11-02T10:14:47.744Z,9340.00
2018-11-02T10:15:47.735Z,9692.00
2018-11-02T10:16:47.713Z,11012.00
2018-11-02T10:17:47.701Z,8664.00
2018-11-02T10:18:47.686Z,8856.00
2018-11-02T10:19:47.685Z,9404.00
2018-11-02T10:20:47.659Z,9512.00
2018-11-02T10:21:47.683Z,10132.00
2018-11-02T10:22:47.632Z,11356.00
2018-11-02T10:23:47.649Z,12468.00
2018-11-02T10:24:47.603Z,15744.00
2018-11-02T10:25:47.587Z,13844.00
2018-11-02T10:26:47.572Z,12636.00
2018-11-02T10:27:47.561Z,13956.00
2018-11-02T10:28:47.543Z,14264.00
2018-11-02T10:29:47.539Z,16544.00
2018-11-02T10:30:47.522Z,13076.00
2018-11-02T10:31:47.506Z,12160.00
2018-11-02T10:32:47.487Z,12532.00
2018-11-02T10:33:47.480Z,11228.00
2018-11-02T10:34:47.460Z,12188.00
2018-11-02T10:35:47.451Z,10144.00
2018-11-02T10:36:47.438Z,9796.00
2018-11-02T10:37:47.422Z,10000.00
2018-11-02T10:38:47.410Z,10136.00
2018-11-02T10:39:47.493Z,10028.00
2018-11-02T10:40:47.386Z,9912.00
2018-11-02T10:41:47.363Z,9728.00
2018-11-02T10:42:47.355Z,9820.00
2018-11-02T10:43:47.338Z,9984.00
2018-11-02T10:44:47.398Z,10316.00
2018-11-02T10:45:47.310Z,10492.00
2018-11-02T10:46:47.292Z,10420.00
2018-11-02T10:48:08.576Z,10388.00
2018-11-02T10:49:08.624Z,10660.00
2018-11-02T10:50:08.554Z,11168.00
2018-11-02T10:51:08.553Z,11120.00
2018-11-02T10:52:08.528Z,10844.00
2018-11-02T10:53:08.511Z,10348.00
2018-11-02T10:54:08.494Z,9912.00
2018-11-02T10:55:08.482Z,9976.00
2018-11-02T10:56:08.472Z,9708.00
2018-11-02T10:57:08.480Z,9796.00
2018-11-02T10:58:08.448Z,9800.00
2018-11-02T10:59:08.428Z,9764.00
2018-11-02T11:00:08.413Z,9760.00
2018-11-02T11:01:08.595Z,9704.00
2018-11-02T11:02:08.394Z,9800.00
2018-11-02T11:03:08.369Z,9724.00
2018-11-02T11:04:08.359Z,9668.00
2018-11-02T11:05:08.405Z,9496.00
2018-11-02T11:06:08.327Z,9392.00
2018-11-02T11:07:08.315Z,9296.00
2018-11-02T11:08:08.305Z,9260.00
2018-11-02T11:09:08.286Z,9424.00
2018-11-02T11:10:08.279Z,9736.00
2018-11-02T11:11:08.263Z,10220.00
2018-11-02T11:12:08.318Z,10320.00
2018-11-02T11:13:08.522Z,10704.00
2018-11-02T11:14:08.216Z,10592.00
2018-11-02T11:15:08.206Z,10260.00
2018-11-02T11:16:08.188Z,9892.00
2018-11-02T11:17:08.181Z,9544.00
2018-11-02T11:18:08.164Z,9372.00
2018-11-02T11:19:08.150Z,9120.00
2018-11-02T11:20:08.132Z,9128.00
2018-11-02T11:21:08.129Z,9188.00
2018-11-02T11:22:08.105Z,9252.00
2018-11-02T11:23:08.097Z,9276.00
2018-11-02T11:24:08.079Z,9392.00
2018-11-02T11:25:08.067Z,9308.00
2018-11-02T11:26:08.052Z,9172.00
2018-11-02T11:27:08.037Z,9272.00
2018-11-02T11:28:08.032Z,9808.00
2018-11-02T11:29:08.043Z,10088.00
2018-11-02T11:30:07.993Z,10404.00
2018-11-02T11:31:07.983Z,10756.00
2018-11-02T11:32:07.967Z,10240.00
2018-11-02T11:33:07.950Z,9924.00
2018-11-02T11:34:07.967Z,9728.00
2018-11-02T11:35:07.919Z,9108.00
2018-11-02T11:36:07.926Z,8932.00
2018-11-02T11:37:07.895Z,8736.00
2018-11-02T11:38:07.886Z,8428.00
2018-11-02T11:39:07.869Z,8852.00
2018-11-02T11:40:07.853Z,9472.00
2018-11-02T11:41:07.839Z,9156.00
2018-11-02T11:42:07.822Z,8736.00
2018-11-02T11:43:07.810Z,10808.00
2018-11-02T11:44:07.801Z,9284.00
2018-11-02T11:45:07.778Z,9736.00
2018-11-02T11:46:07.771Z,9856.00
2018-11-02T11:47:07.750Z,8728.00
2018-11-02T11:48:07.738Z,8160.00
2018-11-02T11:49:07.825Z,6956.00
2018-11-02T11:50:07.711Z,6860.00
2018-11-02T11:51:07.697Z,6984.00
2018-11-02T11:52:07.682Z,5088.00
2018-11-02T11:53:07.669Z,5048.00
2018-11-02T11:54:07.653Z,4588.00
2018-11-02T11:55:07.644Z,3980.00
2018-11-02T11:56:07.634Z,3972.00
2018-11-02T11:57:07.611Z,4232.00
2018-11-02T11:58:07.595Z,5416.00
2018-11-02T11:59:07.583Z,5816.00
2018-11-02T12:00:07.567Z,6144.00
2018-11-02T12:01:07.552Z,6132.00
2018-11-02T12:02:07.565Z,5284.00
2018-11-02T12:03:07.535Z,5752.00
2018-11-02T12:04:07.516Z,5500.00
2018-11-02T12:05:07.497Z,5780.00
2018-11-02T12:06:07.480Z,6280.00
2018-11-02T12:07:07.475Z,6360.00
2018-11-02T12:08:07.455Z,6320.00
2018-11-02T12:09:07.461Z,6036.00
2018-11-02T12:10:07.454Z,3804.00
2018-11-02T12:11:07.409Z,3764.00
2018-11-02T12:12:07.397Z,5084.00
2018-11-02T12:13:07.379Z,3500.00
2018-11-02T12:14:07.366Z,4708.00
2018-11-02T12:15:07.351Z,5524.00
2018-11-02T12:16:07.478Z,5168.00
2018-11-02T12:17:07.323Z,5168.00
2018-11-02T12:18:07.311Z,6200.00
2018-11-02T12:19:07.300Z,5660.00
2018-11-02T12:20:07.282Z,5836.00
2018-11-02T12:21:07.268Z,4772.00
2018-11-02T12:22:07.250Z,4200.00
2018-11-02T12:23:07.239Z,3944.00
2018-11-02T12:24:07.221Z,3396.00
2018-11-02T12:25:07.205Z,3248.00
2018-11-02T12:26:07.194Z,2888.00
2018-11-02T12:27:07.177Z,2988.00
2018-11-02T12:28:07.164Z,4020.00
2018-11-02T12:29:07.143Z,3728.00
2018-11-02T12:30:07.129Z,5304.00
2018-11-02T12:31:07.122Z,4452.00
2018-11-02T12:32:07.106Z,4516.00
2018-11-02T12:33:07.095Z,5292.00
2018-11-02T12:34:07.073Z,4992.00
2018-11-02T12:35:07.087Z,4512.00
2018-11-02T12:36:07.052Z,4196.00
2018-11-02T12:37:07.094Z,4084.00
2018-11-02T12:38:07.076Z,3712.00
2018-11-02T12:39:07.005Z,3804.00